sensor_id;sensor_type;location;lat;lon;timestamp;temperature;humidity
16838;DHT22;19510;54.486;9.046;2022-11-22T00:02:22;0.50;99.90
16838;DHT22;19510;54.486;9.046;2022-11-22T00:05:17;0.40;99.90
16838;DHT22;19510;54.486;9.046;2022-11-22T00:11:19;0.40;99.90
16838;DHT22;19510;54.486;9.046;2022-11-22T00:13:47;0.50;99.90
16838;DHT22;19510;54.486;9.046;2022-11-22T00:16:57;0.50;99.90
16838;DHT22;19510;54.486;9.046;2022-11-22T00:19:31;0.60;99.90
16838;DHT22;19510;54.486;9.046;2022-11-22T00:25:47;0.50;99.90
16838;DHT22;19510;54.486;9.046;2022-11-22T00:28:18;0.50;99.90
16838;DHT22;19510;54.486;9.046;2022-11-22T00:40:43;0.50;99.90
16838;DHT22;19510;54.486;9.046;2022-11-22T00:43:26;0.50;99.90
16838;DHT22;19510;54.486;9.046;2022-11-22T00:46:32;0.60;99.90
16838;DHT22;19510;54.486;9.046;2022-11-22T00:49:17;0.60;99.90
16838;DHT22;19510;54.486;9.046;2022-11-22T00:52:00;0.60;99.90
16838;DHT22;19510;54.486;9.046;2022-11-22T01:01:11;0.60;99.90
16838;DHT22;19510;54.486;9.046;2022-11-22T01:13:59;0.60;99.90
16838;DHT22;19510;54.486;9.046;2022-11-22T01:16:42;0.60;99.90
16838;DHT22;19510;54.486;9.046;2022-11-22T01:19:10;0.60;99.90
16838;DHT22;19510;54.486;9.046;2022-11-22T01:21:36;0.70;99.90
16838;DHT22;19510;54.486;9.046;2022-11-22T01:24:02;0.60;99.90
16838;DHT22;19510;54.486;9.046;2022-11-22T01:26:27;0.60;99.90
16838;DHT22;19510;54.486;9.046;2022-11-22T01:28:53;0.50;99.90
16838;DHT22;19510;54.486;9.046;2022-11-22T01:31:19;0.50;99.90
16838;DHT22;19510;54.486;9.046;2022-11-22T01:33:44;0.60;99.90
16838;DHT22;19510;54.486;9.046;2022-11-22T01:36:10;0.60;99.90
16838;DHT22;19510;54.486;9.046;2022-11-22T01:38:36;0.70;99.90
16838;DHT22;19510;54.486;9.046;2022-11-22T01:41:01;0.60;99.90
16838;DHT22;19510;54.486;9.046;2022-11-22T01:43:27;0.70;99.90
16838;DHT22;19510;54.486;9.046;2022-11-22T01:45:55;0.70;99.90
16838;DHT22;19510;54.486;9.046;2022-11-22T01:48:26;0.70;99.90
16838;DHT22;19510;54.486;9.046;2022-11-22T01:51:12;0.70;99.90
16838;DHT22;19510;54.486;9.046;2022-11-22T01:53:39;0.70;99.90
16838;DHT22;19510;54.486;9.046;2022-11-22T01:56:09;0.60;99.90
16838;DHT22;19510;54.486;9.046;2022-11-22T01:58:40;0.70;99.90
16838;DHT22;19510;54.486;9.046;2022-11-22T02:01:07;0.70;99.90
16838;DHT22;19510;54.486;9.046;2022-11-22T02:03:34;0.70;99.90
16838;DHT22;19510;54.486;9.046;2022-11-22T02:06:02;0.70;99.90
16838;DHT22;19510;54.486;9.046;2022-11-22T02:08:44;0.70;99.90
16838;DHT22;19510;54.486;9.046;2022-11-22T02:11:14;0.70;99.90
16838;DHT22;19510;54.486;9.046;2022-11-22T02:13:42;0.70;99.90
16838;DHT22;19510;54.486;9.046;2022-11-22T02:16:10;0.70;99.90
16838;DHT22;19510;54.486;9.046;2022-11-22T02:18:37;0.70;99.90
16838;DHT22;19510;54.486;9.046;2022-11-22T02:21:03;0.60;99.90
16838;DHT22;19510;54.486;9.046;2022-11-22T02:24:00;0.70;99.90
16838;DHT22;19510;54.486;9.046;2022-11-22T02:26:25;0.70;99.90
16838;DHT22;19510;54.486;9.046;2022-11-22T02:28:55;0.60;99.90
16838;DHT22;19510;54.486;9.046;2022-11-22T02:33:58;0.80;99.90
16838;DHT22;19510;54.486;9.046;2022-11-22T02:36:24;0.80;99.90
16838;DHT22;19510;54.486;9.046;2022-11-22T02:38:49;0.80;99.90
16838;DHT22;19510;54.486;9.046;2022-11-22T02:41:15;0.80;99.90
16838;DHT22;19510;54.486;9.046;2022-11-22T02:43:45;0.60;99.90
16838;DHT22;19510;54.486;9.046;2022-11-22T02:46:13;0.70;99.90
16838;DHT22;19510;54.486;9.046;2022-11-22T02:48:50;0.80;99.90
16838;DHT22;19510;54.486;9.046;2022-11-22T02:51:17;0.70;99.90
16838;DHT22;19510;54.486;9.046;2022-11-22T02:53:44;0.80;99.90
16838;DHT22;19510;54.486;9.046;2022-11-22T02:56:10;0.80;99.90
16838;DHT22;19510;54.486;9.046;2022-11-22T02:58:36;0.80;99.90
16838;DHT22;19510;54.486;9.046;2022-11-22T03:01:02;0.80;99.90
16838;DHT22;19510;54.486;9.046;2022-11-22T03:03:28;0.80;99.90
16838;DHT22;19510;54.486;9.046;2022-11-22T03:05:54;0.90;99.90
16838;DHT22;19510;54.486;9.046;2022-11-22T03:08:20;0.80;99.90
16838;DHT22;19510;54.486;9.046;2022-11-22T03:10:45;0.80;99.90
16838;DHT22;19510;54.486;9.046;2022-11-22T03:13:11;0.80;99.90
16838;DHT22;19510;54.486;9.046;2022-11-22T03:15:37;0.80;99.90
16838;DHT22;19510;54.486;9.046;2022-11-22T03:18:03;0.80;99.90
16838;DHT22;19510;54.486;9.046;2022-11-22T03:20:30;0.80;99.90
16838;DHT22;19510;54.486;9.046;2022-11-22T03:22:59;0.80;99.90
16838;DHT22;19510;54.486;9.046;2022-11-22T03:25:25;0.90;99.90
16838;DHT22;19510;54.486;9.046;2022-11-22T03:27:51;0.90;99.90
16838;DHT22;19510;54.486;9.046;2022-11-22T03:30:17;0.90;99.90
16838;DHT22;19510;54.486;9.046;2022-11-22T03:32:42;0.90;99.90
16838;DHT22;19510;54.486;9.046;2022-11-22T03:35:09;1.00;99.90
16838;DHT22;19510;54.486;9.046;2022-11-22T03:37:34;0.80;99.90
16838;DHT22;19510;54.486;9.046;2022-11-22T03:40:00;1.00;99.90
16838;DHT22;19510;54.486;9.046;2022-11-22T03:42:26;0.90;99.90
16838;DHT22;19510;54.486;9.046;2022-11-22T03:44:51;0.90;99.90
16838;DHT22;19510;54.486;9.046;2022-11-22T03:47:17;0.90;99.90
16838;DHT22;19510;54.486;9.046;2022-11-22T03:49:43;0.90;99.90
16838;DHT22;19510;54.486;9.046;2022-11-22T03:52:08;0.90;99.90
16838;DHT22;19510;54.486;9.046;2022-11-22T03:54:34;0.90;99.90
16838;DHT22;19510;54.486;9.046;2022-11-22T03:57:00;0.90;99.90
16838;DHT22;19510;54.486;9.046;2022-11-22T03:59:25;0.90;99.90
16838;DHT22;19510;54.486;9.046;2022-11-22T04:01:51;0.90;99.90
16838;DHT22;19510;54.486;9.046;2022-11-22T04:04:17;0.90;99.90
16838;DHT22;19510;54.486;9.046;2022-11-22T04:06:42;0.80;99.90
16838;DHT22;19510;54.486;9.046;2022-11-22T04:09:08;1.00;99.90
16838;DHT22;19510;54.486;9.046;2022-11-22T04:11:34;0.90;99.90
16838;DHT22;19510;54.486;9.046;2022-11-22T04:13:59;1.10;99.90
16838;DHT22;19510;54.486;9.046;2022-11-22T04:16:44;0.90;99.90
16838;DHT22;19510;54.486;9.046;2022-11-22T04:19:11;0.90;99.90
16838;DHT22;19510;54.486;9.046;2022-11-22T04:21:37;1.00;99.90
16838;DHT22;19510;54.486;9.046;2022-11-22T04:24:05;1.00;99.90
16838;DHT22;19510;54.486;9.046;2022-11-22T04:26:50;1.00;99.90
16838;DHT22;19510;54.486;9.046;2022-11-22T04:29:16;1.00;99.90
16838;DHT22;19510;54.486;9.046;2022-11-22T04:31:42;1.00;99.90
16838;DHT22;19510;54.486;9.046;2022-11-22T04:34:27;1.00;99.90
16838;DHT22;19510;54.486;9.046;2022-11-22T04:36:52;1.10;99.90
16838;DHT22;19510;54.486;9.046;2022-11-22T04:39:18;1.10;99.90
16838;DHT22;19510;54.486;9.046;2022-11-22T04:41:46;1.10;99.90
16838;DHT22;19510;54.486;9.046;2022-11-22T04:44:12;1.10;99.90
16838;DHT22;19510;54.486;9.046;2022-11-22T04:46:55;1.20;99.90
16838;DHT22;19510;54.486;9.046;2022-11-22T04:49:21;1.20;99.90
16838;DHT22;19510;54.486;9.046;2022-11-22T04:51:47;1.20;99.90
16838;DHT22;19510;54.486;9.046;2022-11-22T04:54:31;1.20;99.90
16838;DHT22;19510;54.486;9.046;2022-11-22T04:56:59;1.20;99.90
16838;DHT22;19510;54.486;9.046;2022-11-22T04:59:25;1.20;99.90
16838;DHT22;19510;54.486;9.046;2022-11-22T05:01:51;1.20;99.90
16838;DHT22;19510;54.486;9.046;2022-11-22T05:04:17;1.20;99.90
16838;DHT22;19510;54.486;9.046;2022-11-22T05:06:43;1.10;99.90
16838;DHT22;19510;54.486;9.046;2022-11-22T05:09:08;1.20;99.90
16838;DHT22;19510;54.486;9.046;2022-11-22T05:11:34;1.20;99.90
16838;DHT22;19510;54.486;9.046;2022-11-22T05:14:00;1.20;99.90
16838;DHT22;19510;54.486;9.046;2022-11-22T05:16:25;1.20;99.90
16838;DHT22;19510;54.486;9.046;2022-11-22T05:18:51;1.20;99.90
16838;DHT22;19510;54.486;9.046;2022-11-22T05:21:27;1.20;99.90
16838;DHT22;19510;54.486;9.046;2022-11-22T05:23:53;1.40;99.90
16838;DHT22;19510;54.486;9.046;2022-11-22T05:26:34;1.20;99.90
16838;DHT22;19510;54.486;9.046;2022-11-22T05:29:07;1.30;99.90
16838;DHT22;19510;54.486;9.046;2022-11-22T05:31:35;1.40;99.90
16838;DHT22;19510;54.486;9.046;2022-11-22T05:34:04;1.30;99.90
16838;DHT22;19510;54.486;9.046;2022-11-22T05:36:33;1.30;99.90
16838;DHT22;19510;54.486;9.046;2022-11-22T05:39:00;1.20;99.90
16838;DHT22;19510;54.486;9.046;2022-11-22T05:41:25;1.30;99.90
16838;DHT22;19510;54.486;9.046;2022-11-22T05:43:56;1.30;99.90
16838;DHT22;19510;54.486;9.046;2022-11-22T05:46:29;1.30;99.90
16838;DHT22;19510;54.486;9.046;2022-11-22T05:48:56;1.30;99.90
16838;DHT22;19510;54.486;9.046;2022-11-22T05:51:26;1.30;99.90
16838;DHT22;19510;54.486;9.046;2022-11-22T05:53:54;1.30;99.90
16838;DHT22;19510;54.486;9.046;2022-11-22T05:56:22;1.30;99.90
16838;DHT22;19510;54.486;9.046;2022-11-22T05:58:49;1.30;99.90
16838;DHT22;19510;54.486;9.046;2022-11-22T06:01:21;1.30;99.90
16838;DHT22;19510;54.486;9.046;2022-11-22T06:03:47;1.30;99.90
16838;DHT22;19510;54.486;9.046;2022-11-22T06:06:13;1.30;99.90
16838;DHT22;19510;54.486;9.046;2022-11-22T06:08:41;1.30;99.90
16838;DHT22;19510;54.486;9.046;2022-11-22T06:11:23;1.30;99.90
16838;DHT22;19510;54.486;9.046;2022-11-22T06:13:55;1.30;99.90
16838;DHT22;19510;54.486;9.046;2022-11-22T06:16:22;1.30;99.90
16838;DHT22;19510;54.486;9.046;2022-11-22T06:18:48;1.30;99.90
16838;DHT22;19510;54.486;9.046;2022-11-22T06:21:17;1.30;99.90
16838;DHT22;19510;54.486;9.046;2022-11-22T06:23:43;1.30;99.90
16838;DHT22;19510;54.486;9.046;2022-11-22T06:26:11;1.30;99.90
16838;DHT22;19510;54.486;9.046;2022-11-22T06:28:38;1.30;99.90
16838;DHT22;19510;54.486;9.046;2022-11-22T06:31:25;1.30;99.90
16838;DHT22;19510;54.486;9.046;2022-11-22T06:33:55;1.40;99.90
16838;DHT22;19510;54.486;9.046;2022-11-22T06:36:24;1.40;99.90
16838;DHT22;19510;54.486;9.046;2022-11-22T06:38:51;1.40;99.90
16838;DHT22;19510;54.486;9.046;2022-11-22T06:41:18;1.40;99.90
16838;DHT22;19510;54.486;9.046;2022-11-22T06:43:48;1.30;99.90
16838;DHT22;19510;54.486;9.046;2022-11-22T06:46:21;1.40;99.90
16838;DHT22;19510;54.486;9.046;2022-11-22T06:48:46;1.40;99.90
16838;DHT22;19510;54.486;9.046;2022-11-22T06:51:17;1.40;99.90
16838;DHT22;19510;54.486;9.046;2022-11-22T06:53:43;1.50;99.90
16838;DHT22;19510;54.486;9.046;2022-11-22T06:56:13;1.40;99.90
16838;DHT22;19510;54.486;9.046;2022-11-22T06:58:43;1.50;99.90
16838;DHT22;19510;54.486;9.046;2022-11-22T07:03:46;1.40;99.90
16838;DHT22;19510;54.486;9.046;2022-11-22T07:06:13;1.50;99.90
16838;DHT22;19510;54.486;9.046;2022-11-22T07:08:49;1.40;99.90
16838;DHT22;19510;54.486;9.046;2022-11-22T07:11:18;1.50;99.90
16838;DHT22;19510;54.486;9.046;2022-11-22T07:13:44;1.60;99.90
16838;DHT22;19510;54.486;9.046;2022-11-22T07:16:13;1.50;99.90
16838;DHT22;19510;54.486;9.046;2022-11-22T07:18:39;1.50;99.90
16838;DHT22;19510;54.486;9.046;2022-11-22T07:21:09;1.60;99.90
16838;DHT22;19510;54.486;9.046;2022-11-22T07:23:36;1.60;99.90
16838;DHT22;19510;54.486;9.046;2022-11-22T07:26:02;1.60;99.90
16838;DHT22;19510;54.486;9.046;2022-11-22T07:28:31;1.60;99.90
16838;DHT22;19510;54.486;9.046;2022-11-22T07:31:02;1.60;99.90
16838;DHT22;19510;54.486;9.046;2022-11-22T07:33:33;1.60;99.90
16838;DHT22;19510;54.486;9.046;2022-11-22T07:36:15;1.70;99.90
16838;DHT22;19510;54.486;9.046;2022-11-22T07:38:41;1.60;99.90
16838;DHT22;19510;54.486;9.046;2022-11-22T07:41:10;1.60;99.90
16838;DHT22;19510;54.486;9.046;2022-11-22T07:43:39;1.60;99.90
16838;DHT22;19510;54.486;9.046;2022-11-22T07:48:44;1.70;99.90
16838;DHT22;19510;54.486;9.046;2022-11-22T07:51:12;1.70;99.90
16838;DHT22;19510;54.486;9.046;2022-11-22T07:53:37;1.70;99.90
16838;DHT22;19510;54.486;9.046;2022-11-22T07:56:04;1.70;99.90
16838;DHT22;19510;54.486;9.046;2022-11-22T07:58:31;1.80;99.90
16838;DHT22;19510;54.486;9.046;2022-11-22T08:00:57;1.80;99.90
16838;DHT22;19510;54.486;9.046;2022-11-22T08:03:24;1.70;99.90
16838;DHT22;19510;54.486;9.046;2022-11-22T08:05:49;1.70;99.90
16838;DHT22;19510;54.486;9.046;2022-11-22T08:08:15;1.70;99.90
16838;DHT22;19510;54.486;9.046;2022-11-22T08:10:42;1.80;99.90
16838;DHT22;19510;54.486;9.046;2022-11-22T08:13:08;1.80;99.90
16838;DHT22;19510;54.486;9.046;2022-11-22T08:15:34;1.80;99.90
16838;DHT22;19510;54.486;9.046;2022-11-22T08:21:40;1.80;99.90
16838;DHT22;19510;54.486;9.046;2022-11-22T08:24:08;1.80;99.90
16838;DHT22;19510;54.486;9.046;2022-11-22T08:26:34;1.80;99.90
16838;DHT22;19510;54.486;9.046;2022-11-22T08:29:03;1.80;99.90
16838;DHT22;19510;54.486;9.046;2022-11-22T08:31:29;1.90;99.90
16838;DHT22;19510;54.486;9.046;2022-11-22T08:33:55;1.90;99.90
16838;DHT22;19510;54.486;9.046;2022-11-22T08:36:21;2.00;99.90
16838;DHT22;19510;54.486;9.046;2022-11-22T08:38:47;1.80;99.90
16838;DHT22;19510;54.486;9.046;2022-11-22T08:41:13;1.90;99.90
16838;DHT22;19510;54.486;9.046;2022-11-22T08:43:38;1.90;99.90
16838;DHT22;19510;54.486;9.046;2022-11-22T08:46:05;1.90;99.90
16838;DHT22;19510;54.486;9.046;2022-11-22T08:48:33;2.00;99.90
16838;DHT22;19510;54.486;9.046;2022-11-22T08:51:09;2.00;99.90
16838;DHT22;19510;54.486;9.046;2022-11-22T08:53:38;2.00;99.90
16838;DHT22;19510;54.486;9.046;2022-11-22T08:56:05;2.00;99.90
16838;DHT22;19510;54.486;9.046;2022-11-22T08:58:34;2.00;99.90
16838;DHT22;19510;54.486;9.046;2022-11-22T09:01:08;2.00;99.90
16838;DHT22;19510;54.486;9.046;2022-11-22T09:04:04;2.00;99.90
16838;DHT22;19510;54.486;9.046;2022-11-22T09:06:39;2.00;99.90
16838;DHT22;19510;54.486;9.046;2022-11-22T09:09:05;2.00;99.90
16838;DHT22;19510;54.486;9.046;2022-11-22T09:11:31;2.00;99.90
16838;DHT22;19510;54.486;9.046;2022-11-22T09:13:56;2.00;99.90
16838;DHT22;19510;54.486;9.046;2022-11-22T09:19:50;2.00;99.90
16838;DHT22;19510;54.486;9.046;2022-11-22T09:25:55;2.00;99.90
16838;DHT22;19510;54.486;9.046;2022-11-22T09:28:27;2.00;99.90
16838;DHT22;19510;54.486;9.046;2022-11-22T09:31:37;2.00;99.90
16838;DHT22;19510;54.486;9.046;2022-11-22T09:34:19;2.00;99.90
16838;DHT22;19510;54.486;9.046;2022-11-22T09:39:56;2.10;99.90
16838;DHT22;19510;54.486;9.046;2022-11-22T09:42:52;2.10;99.90
16838;DHT22;19510;54.486;9.046;2022-11-22T09:55:50;2.10;99.90
16838;DHT22;19510;54.486;9.046;2022-11-22T09:58:40;2.10;99.90
16838;DHT22;19510;54.486;9.046;2022-11-22T10:02:10;2.10;99.90
16838;DHT22;19510;54.486;9.046;2022-11-22T10:05:03;2.10;99.90
16838;DHT22;19510;54.486;9.046;2022-11-22T10:08:00;2.10;99.90
16838;DHT22;19510;54.486;9.046;2022-11-22T10:10:58;2.10;99.90
16838;DHT22;19510;54.486;9.046;2022-11-22T11:16:02;2.40;99.90
16838;DHT22;19510;54.486;9.046;2022-11-22T11:22:01;2.40;99.90
16838;DHT22;19510;54.486;9.046;2022-11-22T11:24:39;2.40;99.90
16838;DHT22;19510;54.486;9.046;2022-11-22T11:27:06;2.40;99.90
16838;DHT22;19510;54.486;9.046;2022-11-22T11:32:16;2.50;99.90
16838;DHT22;19510;54.486;9.046;2022-11-22T11:34:56;2.50;99.90
16838;DHT22;19510;54.486;9.046;2022-11-22T11:37:25;2.50;99.90
16838;DHT22;19510;54.486;9.046;2022-11-22T11:39:51;2.50;99.90
16838;DHT22;19510;54.486;9.046;2022-11-22T11:42:23;2.60;99.90
16838;DHT22;19510;54.486;9.046;2022-11-22T11:44:49;2.60;99.90
16838;DHT22;19510;54.486;9.046;2022-11-22T11:47:33;2.60;99.90
16838;DHT22;19510;54.486;9.046;2022-11-22T11:49:59;2.60;99.90
16838;DHT22;19510;54.486;9.046;2022-11-22T11:52:25;2.60;99.90
16838;DHT22;19510;54.486;9.046;2022-11-22T11:54:55;2.70;99.90
16838;DHT22;19510;54.486;9.046;2022-11-22T11:57:30;2.70;99.90
16838;DHT22;19510;54.486;9.046;2022-11-22T12:00:05;2.70;99.90
16838;DHT22;19510;54.486;9.046;2022-11-22T12:02:38;2.80;99.90
16838;DHT22;19510;54.486;9.046;2022-11-22T12:09:59;2.70;99.90
16838;DHT22;19510;54.486;9.046;2022-11-22T12:12:45;2.80;99.90
16838;DHT22;19510;54.486;9.046;2022-11-22T12:23:57;2.90;99.90
16838;DHT22;19510;54.486;9.046;2022-11-22T12:26:25;2.90;99.90
16838;DHT22;19510;54.486;9.046;2022-11-22T12:28:52;2.90;99.90
16838;DHT22;19510;54.486;9.046;2022-11-22T12:31:36;2.90;99.90
16838;DHT22;19510;54.486;9.046;2022-11-22T12:34:28;2.90;99.90
16838;DHT22;19510;54.486;9.046;2022-11-22T12:37:04;2.90;99.90
16838;DHT22;19510;54.486;9.046;2022-11-22T12:39:34;2.90;99.90
16838;DHT22;19510;54.486;9.046;2022-11-22T12:44:46;3.00;99.90
16838;DHT22;19510;54.486;9.046;2022-11-22T12:47:17;3.00;99.90
16838;DHT22;19510;54.486;9.046;2022-11-22T12:49:47;3.00;99.90
16838;DHT22;19510;54.486;9.046;2022-11-22T13:00:21;3.10;99.90
16838;DHT22;19510;54.486;9.046;2022-11-22T13:02:59;3.10;99.90
16838;DHT22;19510;54.486;9.046;2022-11-22T13:06:02;3.20;99.90
16838;DHT22;19510;54.486;9.046;2022-11-22T13:14:29;3.10;99.90
16838;DHT22;19510;54.486;9.046;2022-11-22T13:16:57;3.10;99.90
16838;DHT22;19510;54.486;9.046;2022-11-22T13:19:25;3.10;99.90
16838;DHT22;19510;54.486;9.046;2022-11-22T13:27:19;3.10;99.90
16838;DHT22;19510;54.486;9.046;2022-11-22T13:29:47;3.10;99.90
16838;DHT22;19510;54.486;9.046;2022-11-22T13:32:16;3.20;99.90
16838;DHT22;19510;54.486;9.046;2022-11-22T13:37:38;3.20;99.90
16838;DHT22;19510;54.486;9.046;2022-11-22T13:40:31;3.20;99.90
16838;DHT22;19510;54.486;9.046;2022-11-22T13:52:01;3.30;99.90
16838;DHT22;19510;54.486;9.046;2022-11-22T14:02:37;3.30;99.90
16838;DHT22;19510;54.486;9.046;2022-11-22T14:07:52;3.30;99.90
16838;DHT22;19510;54.486;9.046;2022-11-22T14:16:40;3.30;99.90
16838;DHT22;19510;54.486;9.046;2022-11-22T14:30:39;3.30;99.90
16838;DHT22;19510;54.486;9.046;2022-11-22T14:33:20;3.30;99.90
16838;DHT22;19510;54.486;9.046;2022-11-22T14:38:32;3.30;99.90
16838;DHT22;19510;54.486;9.046;2022-11-22T14:47:27;3.30;99.90
16838;DHT22;19510;54.486;9.046;2022-11-22T14:49:55;3.20;99.90
16838;DHT22;19510;54.486;9.046;2022-11-22T14:52:27;3.20;99.90
16838;DHT22;19510;54.486;9.046;2022-11-22T14:55:00;3.10;99.90
16838;DHT22;19510;54.486;9.046;2022-11-22T14:57:36;3.00;99.90
16838;DHT22;19510;54.486;9.046;2022-11-22T15:00:21;3.10;99.90
16838;DHT22;19510;54.486;9.046;2022-11-22T15:06:09;3.10;99.90
16838;DHT22;19510;54.486;9.046;2022-11-22T15:17:04;3.00;99.90
16838;DHT22;19510;54.486;9.046;2022-11-22T15:19:41;3.00;99.90
16838;DHT22;19510;54.486;9.046;2022-11-22T15:22:12;3.00;99.90
16838;DHT22;19510;54.486;9.046;2022-11-22T15:24:47;3.00;99.90
16838;DHT22;19510;54.486;9.046;2022-11-22T15:27:28;3.10;99.90
16838;DHT22;19510;54.486;9.046;2022-11-22T15:30:17;3.00;99.90
16838;DHT22;19510;54.486;9.046;2022-11-22T15:32:46;3.00;99.90
16838;DHT22;19510;54.486;9.046;2022-11-22T15:35:24;3.10;99.90
16838;DHT22;19510;54.486;9.046;2022-11-22T15:38:10;3.00;99.90
16838;DHT22;19510;54.486;9.046;2022-11-22T15:40:39;3.10;99.90
16838;DHT22;19510;54.486;9.046;2022-11-22T15:43:10;3.00;99.90
16838;DHT22;19510;54.486;9.046;2022-11-22T15:45:42;3.00;99.90
16838;DHT22;19510;54.486;9.046;2022-11-22T15:48:17;3.00;99.90
16838;DHT22;19510;54.486;9.046;2022-11-22T15:51:05;3.10;99.90
16838;DHT22;19510;54.486;9.046;2022-11-22T15:56:40;3.10;99.90
16838;DHT22;19510;54.486;9.046;2022-11-22T16:02:24;3.10;99.90
16838;DHT22;19510;54.486;9.046;2022-11-22T16:04:58;3.10;99.90
16838;DHT22;19510;54.486;9.046;2022-11-22T16:09:58;3.10;99.90
16838;DHT22;19510;54.486;9.046;2022-11-22T16:12:38;3.10;99.90
16838;DHT22;19510;54.486;9.046;2022-11-22T16:15:30;3.10;99.90
16838;DHT22;19510;54.486;9.046;2022-11-22T16:21:01;3.00;99.90
16838;DHT22;19510;54.486;9.046;2022-11-22T16:23:33;3.00;99.90
16838;DHT22;19510;54.486;9.046;2022-11-22T16:26:19;3.00;99.90
16838;DHT22;19510;54.486;9.046;2022-11-22T16:28:53;3.10;99.90
16838;DHT22;19510;54.486;9.046;2022-11-22T16:31:27;3.10;99.90
16838;DHT22;19510;54.486;9.046;2022-11-22T16:33:55;3.10;99.90
16838;DHT22;19510;54.486;9.046;2022-11-22T16:36:23;3.10;99.90
16838;DHT22;19510;54.486;9.046;2022-11-22T16:38:55;3.10;99.90
16838;DHT22;19510;54.486;9.046;2022-11-22T16:41:23;3.00;99.90
16838;DHT22;19510;54.486;9.046;2022-11-22T16:43:59;3.00;99.90
16838;DHT22;19510;54.486;9.046;2022-11-22T16:46:25;3.10;99.90
16838;DHT22;19510;54.486;9.046;2022-11-22T16:48:51;3.00;99.90
16838;DHT22;19510;54.486;9.046;2022-11-22T16:51:28;3.10;99.90
16838;DHT22;19510;54.486;9.046;2022-11-22T16:54:05;3.10;99.90
16838;DHT22;19510;54.486;9.046;2022-11-22T16:56:32;3.10;99.90
16838;DHT22;19510;54.486;9.046;2022-11-22T16:58:58;3.10;99.90
16838;DHT22;19510;54.486;9.046;2022-11-22T17:08:19;3.00;99.90
16838;DHT22;19510;54.486;9.046;2022-11-22T17:10:46;3.10;99.90
16838;DHT22;19510;54.486;9.046;2022-11-22T17:13:34;3.10;99.90
16838;DHT22;19510;54.486;9.046;2022-11-22T17:16:03;3.10;99.90
16838;DHT22;19510;54.486;9.046;2022-11-22T17:18:29;3.10;99.90
16838;DHT22;19510;54.486;9.046;2022-11-22T17:20:54;3.10;99.90
16838;DHT22;19510;54.486;9.046;2022-11-22T17:23:29;3.10;99.90
16838;DHT22;19510;54.486;9.046;2022-11-22T17:25:56;3.10;99.90
16838;DHT22;19510;54.486;9.046;2022-11-22T17:28:22;3.10;99.90
16838;DHT22;19510;54.486;9.046;2022-11-22T17:30:48;3.10;99.90
16838;DHT22;19510;54.486;9.046;2022-11-22T17:33:16;3.00;99.90
16838;DHT22;19510;54.486;9.046;2022-11-22T17:35:44;3.10;99.90
16838;DHT22;19510;54.486;9.046;2022-11-22T17:38:10;3.00;99.90
16838;DHT22;19510;54.486;9.046;2022-11-22T17:40:37;3.00;99.90
16838;DHT22;19510;54.486;9.046;2022-11-22T17:43:02;3.00;99.90
16838;DHT22;19510;54.486;9.046;2022-11-22T17:45:28;3.00;99.90
16838;DHT22;19510;54.486;9.046;2022-11-22T17:47:54;3.00;99.90
16838;DHT22;19510;54.486;9.046;2022-11-22T17:50:20;3.00;99.90
16838;DHT22;19510;54.486;9.046;2022-11-22T17:52:46;3.00;99.90
16838;DHT22;19510;54.486;9.046;2022-11-22T17:55:11;2.90;99.90
16838;DHT22;19510;54.486;9.046;2022-11-22T17:57:37;3.00;99.90
16838;DHT22;19510;54.486;9.046;2022-11-22T18:00:05;3.00;99.90
16838;DHT22;19510;54.486;9.046;2022-11-22T18:02:32;3.00;99.90
16838;DHT22;19510;54.486;9.046;2022-11-22T18:04:58;3.00;99.90
16838;DHT22;19510;54.486;9.046;2022-11-22T18:07:26;3.00;99.90
16838;DHT22;19510;54.486;9.046;2022-11-22T18:09:53;2.90;99.90
16838;DHT22;19510;54.486;9.046;2022-11-22T18:12:19;3.10;99.90
16838;DHT22;19510;54.486;9.046;2022-11-22T18:14:45;3.00;99.90
16838;DHT22;19510;54.486;9.046;2022-11-22T18:17:12;2.90;99.90
16838;DHT22;19510;54.486;9.046;2022-11-22T18:19:39;3.00;99.90
16838;DHT22;19510;54.486;9.046;2022-11-22T18:22:05;3.00;99.90
16838;DHT22;19510;54.486;9.046;2022-11-22T18:24:33;3.00;99.90
16838;DHT22;19510;54.486;9.046;2022-11-22T18:26:59;3.10;99.90
16838;DHT22;19510;54.486;9.046;2022-11-22T18:29:30;3.00;99.90
16838;DHT22;19510;54.486;9.046;2022-11-22T18:31:56;3.00;99.90
16838;DHT22;19510;54.486;9.046;2022-11-22T18:34:22;3.00;99.90
16838;DHT22;19510;54.486;9.046;2022-11-22T18:36:48;2.90;99.90
16838;DHT22;19510;54.486;9.046;2022-11-22T18:39:14;2.90;99.90
16838;DHT22;19510;54.486;9.046;2022-11-22T18:41:42;2.90;99.90
16838;DHT22;19510;54.486;9.046;2022-11-22T18:44:08;2.90;99.90
16838;DHT22;19510;54.486;9.046;2022-11-22T18:46:33;3.00;99.90
16838;DHT22;19510;54.486;9.046;2022-11-22T18:48:59;2.90;99.90
16838;DHT22;19510;54.486;9.046;2022-11-22T18:51:25;2.90;99.90
16838;DHT22;19510;54.486;9.046;2022-11-22T18:53:50;2.90;99.90
16838;DHT22;19510;54.486;9.046;2022-11-22T18:56:16;2.90;99.90
16838;DHT22;19510;54.486;9.046;2022-11-22T18:58:42;2.90;99.90
16838;DHT22;19510;54.486;9.046;2022-11-22T19:01:17;2.90;99.90
16838;DHT22;19510;54.486;9.046;2022-11-22T19:03:44;2.90;99.90
16838;DHT22;19510;54.486;9.046;2022-11-22T19:06:12;2.90;99.90
16838;DHT22;19510;54.486;9.046;2022-11-22T19:08:39;2.80;99.90
16838;DHT22;19510;54.486;9.046;2022-11-22T19:11:05;2.90;99.90
16838;DHT22;19510;54.486;9.046;2022-11-22T19:13:33;2.90;99.90
16838;DHT22;19510;54.486;9.046;2022-11-22T19:16:07;2.90;99.90
16838;DHT22;19510;54.486;9.046;2022-11-22T19:18:33;2.90;99.90
16838;DHT22;19510;54.486;9.046;2022-11-22T19:21:07;2.90;99.90
16838;DHT22;19510;54.486;9.046;2022-11-22T19:23:37;2.90;99.90
16838;DHT22;19510;54.486;9.046;2022-11-22T19:26:08;2.90;99.90
16838;DHT22;19510;54.486;9.046;2022-11-22T19:28:34;3.00;99.90
16838;DHT22;19510;54.486;9.046;2022-11-22T19:31:11;2.90;99.90
16838;DHT22;19510;54.486;9.046;2022-11-22T19:33:37;2.90;99.90
16838;DHT22;19510;54.486;9.046;2022-11-22T19:36:06;2.90;99.90
16838;DHT22;19510;54.486;9.046;2022-11-22T19:38:32;2.90;99.90
16838;DHT22;19510;54.486;9.046;2022-11-22T19:40:58;2.90;99.90
16838;DHT22;19510;54.486;9.046;2022-11-22T19:43:24;2.90;99.90
16838;DHT22;19510;54.486;9.046;2022-11-22T19:49:30;2.90;99.90
16838;DHT22;19510;54.486;9.046;2022-11-22T19:51:56;2.80;99.90
16838;DHT22;19510;54.486;9.046;2022-11-22T19:54:22;2.90;99.90
16838;DHT22;19510;54.486;9.046;2022-11-22T19:56:47;2.90;99.90
16838;DHT22;19510;54.486;9.046;2022-11-22T19:59:13;2.90;99.90
16838;DHT22;19510;54.486;9.046;2022-11-22T20:01:41;2.90;99.90
16838;DHT22;19510;54.486;9.046;2022-11-22T20:04:07;2.90;99.90
16838;DHT22;19510;54.486;9.046;2022-11-22T20:06:34;2.90;99.90
16838;DHT22;19510;54.486;9.046;2022-11-22T20:09:09;2.90;99.90
16838;DHT22;19510;54.486;9.046;2022-11-22T20:11:40;2.90;99.90
16838;DHT22;19510;54.486;9.046;2022-11-22T20:14:07;3.00;99.90
16838;DHT22;19510;54.486;9.046;2022-11-22T20:16:33;2.90;99.90
16838;DHT22;19510;54.486;9.046;2022-11-22T20:19:02;2.90;99.90
16838;DHT22;19510;54.486;9.046;2022-11-22T20:21:30;2.90;99.90